Time;durP1;ratioP1;P1;durP2;ratioP2;P2;SDS_P1;SDS_P2;PMS_P1;PMS_P2;Temp;Humidity;BMP_temperature;BMP_pressure;BME280_temperature;BME280_humidity;BME280_pressure;Samples;Min_cycle;Max_cycle;Signal;HPM_P1;HPM_P2
2023/03/23 00:01:36;;;;;;;7.70;7.00;;;11.30;99.90;;;;;;4964336;28;20469;-77
2023/03/23 00:04:05;;;;;;;8.07;6.70;;;11.30;99.90;;;;;;4963059;28;20508;-75
2023/03/23 00:06:34;;;;;;;8.10;7.40;;;11.30;99.90;;;;;;4970209;28;21156;-76
2023/03/23 00:09:03;;;;;;;10.90;8.47;;;11.30;99.90;;;;;;4955882;28;20469;-77
2023/03/23 00:11:32;;;;;;;8.63;7.83;;;11.20;99.90;;;;;;4956362;28;20981;-74
2023/03/23 00:14:01;;;;;;;8.97;8.27;;;11.20;99.90;;;;;;4962116;28;20867;-75
2023/03/23 00:16:31;;;;;;;8.63;7.93;;;11.10;99.90;;;;;;4954197;28;20469;-76
2023/03/23 00:19:01;;;;;;;9.50;8.37;;;11.10;99.90;;;;;;4977568;28;20465;-74
2023/03/23 00:21:34;;;;;;;9.93;8.70;;;11.10;99.90;;;;;;4968028;28;20481;-78
2023/03/23 00:24:03;;;;;;;10.67;9.60;;;11.10;99.90;;;;;;4963358;28;20588;-76
2023/03/23 00:26:33;;;;;;;9.97;8.90;;;11.00;99.90;;;;;;4950263;28;20505;-75
2023/03/23 00:29:01;;;;;;;10.73;8.90;;;11.00;99.90;;;;;;4961016;28;20488;-76
2023/03/23 00:31:31;;;;;;;11.10;10.00;;;11.00;99.90;;;;;;4979515;28;20473;-76
2023/03/23 00:34:00;;;;;;;11.27;10.17;;;11.00;99.90;;;;;;4963780;28;20856;-76
2023/03/23 00:36:29;;;;;;;10.93;9.83;;;11.00;99.90;;;;;;4957307;28;20492;-77
2023/03/23 00:38:59;;;;;;;11.50;10.40;;;10.90;99.90;;;;;;4950603;28;20574;-76
2023/03/23 00:41:27;;;;;;;11.57;10.47;;;11.00;99.90;;;;;;4961101;28;20522;-76
2023/03/23 00:43:55;;;;;;;11.77;10.60;;;10.90;99.90;;;;;;4971173;28;20499;-76
2023/03/23 00:46:22;;;;;;;13.83;12.43;;;11.00;99.90;;;;;;4947726;28;20492;-76
2023/03/23 00:48:50;;;;;;;15.20;12.00;;;10.90;99.90;;;;;;4961181;28;20481;-76
2023/03/23 00:51:18;;;;;;;13.20;11.90;;;10.90;99.90;;;;;;4981359;28;20942;-76
2023/03/23 00:53:47;;;;;;;12.37;11.27;;;10.90;99.90;;;;;;4980515;28;20489;-75
2023/03/23 00:56:15;;;;;;;12.07;10.93;;;10.90;99.90;;;;;;4964478;28;20473;-77
2023/03/23 00:58:42;;;;;;;12.90;11.60;;;10.90;99.90;;;;;;4967805;28;20502;-77
2023/03/23 01:01:09;;;;;;;12.37;11.17;;;10.90;99.90;;;;;;4965581;28;20469;-76
2023/03/23 01:03:37;;;;;;;12.87;11.67;;;10.90;99.90;;;;;;4986091;28;20488;-75
2023/03/23 01:06:12;;;;;;;12.57;11.37;;;10.90;99.90;;;;;;4967750;28;20493;-76
2023/03/23 01:08:44;;;;;;;12.30;11.00;;;10.90;99.90;;;;;;4987211;28;20472;-76
2023/03/23 01:11:15;;;;;;;11.53;10.50;;;10.90;99.90;;;;;;4980829;28;20469;-78
2023/03/23 01:13:42;;;;;;;11.53;10.43;;;10.90;99.90;;;;;;4965919;28;21029;-77
2023/03/23 01:16:11;;;;;;;12.00;10.80;;;10.90;99.90;;;;;;4965441;28;21041;-77
2023/03/23 01:18:38;;;;;;;12.17;10.93;;;10.90;99.90;;;;;;4986195;28;20473;-77
2023/03/23 01:21:06;;;;;;;12.77;11.47;;;10.90;99.90;;;;;;4988409;28;20489;-78
2023/03/23 01:23:33;;;;;;;10.80;9.80;;;10.90;99.90;;;;;;4964565;28;20575;-77
2023/03/23 01:26:04;;;;;;;10.77;9.77;;;10.90;99.90;;;;;;4983794;28;21138;-76
2023/03/23 01:28:32;;;;;;;11.17;9.97;;;10.90;99.90;;;;;;4985737;28;20481;-77
2023/03/23 01:31:04;;;;;;;11.30;10.20;;;10.90;99.90;;;;;;4985578;28;20500;-76
2023/03/23 01:33:31;;;;;;;12.30;11.10;;;10.90;99.90;;;;;;4962644;28;21080;-78
2023/03/23 01:35:58;;;;;;;11.00;10.00;;;10.90;99.90;;;;;;4977789;28;21009;-76
2023/03/23 01:38:25;;;;;;;11.23;10.23;;;10.90;99.90;;;;;;4976438;28;20532;-77
2023/03/23 01:40:52;;;;;;;12.10;10.97;;;10.90;99.90;;;;;;4965631;28;20500;-75
2023/03/23 01:43:19;;;;;;;12.37;11.10;;;10.90;99.90;;;;;;4952563;28;20489;-76
2023/03/23 01:45:47;;;;;;;12.93;11.63;;;10.90;99.90;;;;;;4956308;28;21092;-77
2023/03/23 01:48:20;;;;;;;12.63;11.47;;;10.90;99.90;;;;;;4976015;28;20476;-77
2023/03/23 01:50:52;;;;;;;13.83;11.13;;;10.90;99.90;;;;;;4985228;28;20496;-77
2023/03/23 01:53:21;;;;;;;13.73;12.47;;;10.80;99.90;;;;;;4965055;28;20489;-77
2023/03/23 01:55:50;;;;;;;14.10;12.80;;;10.90;99.90;;;;;;4975969;28;20481;-77
2023/03/23 01:58:20;;;;;;;12.93;11.73;;;10.90;99.90;;;;;;4971025;28;20473;-76
2023/03/23 02:00:48;;;;;;;13.40;12.00;;;10.90;99.90;;;;;;4969763;28;20627;-77
2023/03/23 02:03:17;;;;;;;14.47;13.07;;;10.80;99.90;;;;;;4970579;28;20580;-76
2023/03/23 02:05:44;;;;;;;13.40;12.10;;;10.90;99.90;;;;;;4955166;28;20496;-79
2023/03/23 02:08:15;;;;;;;14.17;12.87;;;10.80;99.90;;;;;;4970597;28;20955;-78
2023/03/23 02:10:42;;;;;;;13.30;11.90;;;10.80;99.90;;;;;;4960650;28;20974;-79
2023/03/23 02:13:12;;;;;;;13.90;12.50;;;10.80;99.90;;;;;;4965304;28;21040;-76
2023/03/23 02:15:50;;;;;;;13.17;11.90;;;10.80;99.90;;;;;;4974415;28;20480;-76
2023/03/23 02:18:31;;;;;;;14.33;12.90;;;10.80;99.90;;;;;;4959343;28;20461;-77
2023/03/23 02:21:32;;;;;;;13.10;11.80;;;10.80;99.90;;;;;;4963358;28;20492;-78
2023/03/23 02:24:18;;;;;;;13.73;12.33;;;10.90;99.90;;;;;;4979658;28;20493;-77
2023/03/23 02:26:55;;;;;;;13.30;12.10;;;10.80;99.90;;;;;;4978991;28;20501;-77
2023/03/23 02:29:49;;;;;;;12.63;11.43;;;10.90;99.90;;;;;;4973572;28;21707;-76
2023/03/23 02:32:42;;;;;;;13.33;12.10;;;10.80;99.90;;;;;;4964815;28;20655;-75
2023/03/23 02:35:16;;;;;;;11.97;10.87;;;10.80;99.90;;;;;;4962781;28;20473;-77
2023/03/23 02:37:49;;;;;;;11.90;10.80;;;10.90;99.90;;;;;;4959893;28;20491;-76
2023/03/23 02:40:21;;;;;;;13.10;11.90;;;10.80;99.90;;;;;;4956089;28;20497;-75
2023/03/23 02:42:52;;;;;;;12.87;11.67;;;10.90;99.90;;;;;;4955881;28;20491;-75
2023/03/23 02:45:22;;;;;;;13.23;12.03;;;10.90;99.90;;;;;;4967824;28;20546;-74
2023/03/23 02:47:52;;;;;;;13.50;12.30;;;10.90;99.90;;;;;;4955335;28;22415;-77
2023/03/23 02:50:24;;;;;;;12.80;11.60;;;10.90;99.90;;;;;;4976983;28;20543;-74
2023/03/23 02:52:53;;;;;;;12.50;11.50;;;10.90;99.90;;;;;;4956537;28;20488;-78
2023/03/23 02:55:24;;;;;;;12.43;11.33;;;10.90;99.90;;;;;;4946977;28;20477;-75
2023/03/23 02:57:53;;;;;;;11.37;10.37;;;10.90;99.90;;;;;;4962093;28;20505;-76
2023/03/23 03:00:21;;;;;;;12.53;11.40;;;10.90;99.90;;;;;;4959928;28;20497;-75
2023/03/23 03:02:52;;;;;;;11.80;10.70;;;10.90;99.90;;;;;;4969984;28;20501;-77
2023/03/23 03:05:31;;;;;;;12.30;11.27;;;10.90;99.90;;;;;;4968910;28;20477;-77
2023/03/23 03:08:12;;;;;;;12.40;11.33;;;10.90;99.90;;;;;;4976428;28;20479;-77
2023/03/23 03:10:47;;;;;;;11.87;10.87;;;10.90;99.90;;;;;;4945618;28;20880;-75
2023/03/23 03:13:20;;;;;;;13.53;12.30;;;10.90;99.90;;;;;;4967883;28;20499;-78
2023/03/23 03:15:53;;;;;;;12.60;11.30;;;10.90;99.90;;;;;;4958498;28;20998;-77
2023/03/23 03:18:24;;;;;;;12.57;11.37;;;10.90;99.90;;;;;;4967799;28;20480;-77
2023/03/23 03:20:58;;;;;;;13.57;12.37;;;10.90;99.90;;;;;;4957661;28;20584;-75
2023/03/23 03:23:26;;;;;;;12.90;11.80;;;10.90;99.90;;;;;;4952279;28;20503;-77
2023/03/23 03:25:57;;;;;;;13.43;12.23;;;10.90;99.90;;;;;;4954808;28;20495;-77
2023/03/23 03:28:26;;;;;;;12.83;11.63;;;10.90;99.90;;;;;;4952257;28;20508;-77
2023/03/23 03:30:56;;;;;;;13.10;12.00;;;10.90;99.90;;;;;;4967685;28;21056;-76
2023/03/23 03:33:25;;;;;;;13.17;11.87;;;11.00;99.90;;;;;;4978035;28;21032;-76
2023/03/23 03:35:56;;;;;;;12.97;11.83;;;10.90;99.90;;;;;;4968947;28;20540;-74
2023/03/23 03:38:23;;;;;;;12.87;11.73;;;11.00;99.90;;;;;;4972683;28;20552;-74
2023/03/23 03:41:21;;;;;;;13.73;12.43;;;11.00;99.90;;;;;;4960417;28;20503;-79
2023/03/23 03:43:48;;;;;;;13.90;12.50;;;11.00;99.90;;;;;;4949687;28;20493;-75
2023/03/23 03:46:15;;;;;;;13.20;12.00;;;10.90;99.90;;;;;;4955215;28;20611;-76
2023/03/23 03:48:42;;;;;;;13.40;12.20;;;11.00;99.90;;;;;;4969918;28;20485;-75
2023/03/23 03:51:11;;;;;;;14.70;13.23;;;10.90;99.90;;;;;;4966613;28;20492;-77
2023/03/23 03:53:38;;;;;;;13.80;12.50;;;11.00;99.90;;;;;;4957192;28;20495;-74
2023/03/23 03:56:07;;;;;;;13.97;12.70;;;11.00;99.90;;;;;;4950949;28;21069;-74
2023/03/23 03:58:35;;;;;;;13.93;12.63;;;11.00;99.90;;;;;;4962512;28;20527;-78
2023/03/23 04:01:04;;;;;;;14.13;12.83;;;11.00;99.90;;;;;;4964224;28;20500;-78
2023/03/23 04:03:30;;;;;;;14.80;13.40;;;11.00;99.90;;;;;;4979615;28;20481;-76
2023/03/23 04:05:59;;;;;;;14.13;12.70;;;11.00;99.90;;;;;;4957897;28;20496;-74
2023/03/23 04:08:27;;;;;;;15.03;13.77;;;11.10;99.90;;;;;;4973812;28;20468;-76
2023/03/23 04:10:54;;;;;;;13.87;12.67;;;11.10;99.90;;;;;;4971318;28;21059;-74
2023/03/23 04:13:22;;;;;;;13.30;12.03;;;11.10;99.90;;;;;;4972081;28;20899;-77
2023/03/23 04:15:50;;;;;;;14.50;13.20;;;11.10;99.90;;;;;;4954213;28;20475;-76
2023/03/23 04:18:18;;;;;;;14.40;13.10;;;11.10;99.90;;;;;;4957803;28;20512;-76
2023/03/23 04:20:46;;;;;;;13.13;11.93;;;11.10;99.90;;;;;;4952176;28;20520;-77
2023/03/23 04:23:14;;;;;;;13.37;12.27;;;11.10;99.90;;;;;;4962593;28;20496;-77
2023/03/23 04:25:43;;;;;;;13.37;12.03;;;11.10;99.90;;;;;;4980147;28;20465;-77
2023/03/23 04:28:10;;;;;;;13.17;11.93;;;11.10;99.90;;;;;;4955767;28;20497;-77
2023/03/23 04:30:37;;;;;;;12.07;11.07;;;11.10;99.90;;;;;;4981699;28;20497;-78
2023/03/23 04:33:04;;;;;;;13.10;11.90;;;11.10;99.90;;;;;;4983885;28;20485;-77
2023/03/23 04:35:31;;;;;;;12.73;11.60;;;11.20;99.90;;;;;;4969630;28;21846;-77
2023/03/23 04:37:58;;;;;;;13.83;12.53;;;11.10;99.90;;;;;;4962180;28;22068;-76
2023/03/23 04:40:25;;;;;;;13.43;12.17;;;11.10;99.90;;;;;;4950296;28;20509;-77
2023/03/23 04:42:57;;;;;;;13.57;12.37;;;11.10;99.90;;;;;;4959801;28;20488;-76
2023/03/23 04:45:24;;;;;;;13.80;12.60;;;11.10;99.90;;;;;;4970023;28;20473;-75
2023/03/23 04:47:57;;;;;;;12.83;11.83;;;11.10;99.90;;;;;;4955376;28;20488;-78
2023/03/23 04:50:27;;;;;;;15.03;13.40;;;11.10;99.90;;;;;;4957259;28;21072;-77
2023/03/23 04:52:57;;;;;;;15.43;12.93;;;11.10;99.90;;;;;;4957799;28;20469;-75
2023/03/23 04:55:25;;;;;;;14.30;13.00;;;11.10;99.90;;;;;;4954980;28;20471;-77
2023/03/23 04:57:54;;;;;;;13.77;12.50;;;11.10;99.90;;;;;;4975359;28;20480;-76
2023/03/23 05:00:21;;;;;;;14.10;12.90;;;11.10;99.90;;;;;;4952876;28;20528;-75
2023/03/23 05:02:51;;;;;;;13.50;12.37;;;11.10;99.90;;;;;;4950682;28;20567;-77
2023/03/23 05:05:19;;;;;;;13.60;12.30;;;11.10;99.90;;;;;;4940131;28;20469;-77
2023/03/23 05:07:46;;;;;;;14.70;13.30;;;11.10;99.90;;;;;;4944244;28;20504;-76
2023/03/23 05:10:15;;;;;;;14.00;12.77;;;11.10;99.90;;;;;;4954981;28;20506;-74
2023/03/23 05:12:42;;;;;;;14.17;12.77;;;11.10;99.90;;;;;;4952645;28;20493;-75
2023/03/23 05:15:12;;;;;;;13.87;12.67;;;11.10;99.90;;;;;;4949313;28;20655;-75
2023/03/23 05:17:40;;;;;;;14.80;13.40;;;11.10;99.90;;;;;;4946259;28;20480;-75
2023/03/23 05:20:10;;;;;;;13.70;12.60;;;11.20;99.90;;;;;;4952019;28;20489;-76
2023/03/23 05:22:38;;;;;;;14.93;13.63;;;11.20;99.90;;;;;;4937702;28;20497;-75
2023/03/23 05:25:08;;;;;;;14.73;13.53;;;11.20;99.90;;;;;;4960368;28;20476;-75
2023/03/23 05:27:35;;;;;;;14.97;13.57;;;11.20;99.90;;;;;;4953862;28;20504;-76
2023/03/23 05:30:02;;;;;;;13.67;12.47;;;11.20;99.90;;;;;;4955100;28;20557;-76
2023/03/23 05:32:31;;;;;;;13.60;12.30;;;11.20;99.90;;;;;;4965847;28;21075;-76
2023/03/23 05:34:58;;;;;;;13.30;12.00;;;11.20;99.90;;;;;;4950556;28;20530;-76
2023/03/23 05:37:26;;;;;;;13.63;12.40;;;11.20;99.90;;;;;;4965378;28;20484;-77
2023/03/23 05:39:55;;;;;;;14.50;13.20;;;11.20;99.90;;;;;;4982512;28;20492;-74
2023/03/23 05:42:22;;;;;;;12.90;11.70;;;11.20;99.90;;;;;;4956966;28;21231;-75
2023/03/23 05:44:49;;;;;;;12.87;11.57;;;11.20;99.90;;;;;;4959539;28;20500;-75
2023/03/23 05:47:16;;;;;;;13.00;11.90;;;11.20;99.90;;;;;;4948957;28;20508;-76
2023/03/23 05:49:45;;;;;;;12.27;11.27;;;11.20;99.90;;;;;;4959811;28;20490;-76
2023/03/23 05:52:13;;;;;;;11.73;10.60;;;11.20;99.90;;;;;;4949532;28;20485;-77
2023/03/23 05:54:41;;;;;;;11.57;10.53;;;11.20;99.90;;;;;;4949202;28;20480;-76
2023/03/23 05:57:08;;;;;;;11.67;10.67;;;11.20;99.90;;;;;;4958668;28;20466;-78
2023/03/23 05:59:35;;;;;;;11.40;10.37;;;11.20;99.90;;;;;;4955104;28;20500;-77
2023/03/23 06:02:02;;;;;;;11.53;10.53;;;11.20;99.90;;;;;;4947278;28;20492;-75
2023/03/23 06:04:29;;;;;;;10.77;9.77;;;11.20;99.90;;;;;;4957744;28;20478;-74
2023/03/23 06:06:57;;;;;;;11.13;10.03;;;11.20;99.90;;;;;;4946840;28;20489;-74
2023/03/23 06:09:24;;;;;;;11.43;10.33;;;11.10;99.90;;;;;;4973298;28;20492;-75
2023/03/23 06:11:51;;;;;;;10.60;9.70;;;11.10;99.90;;;;;;4960232;28;21020;-74
2023/03/23 06:14:18;;;;;;;10.83;9.73;;;11.20;99.90;;;;;;4964078;28;20481;-77
2023/03/23 06:16:45;;;;;;;10.40;9.40;;;11.10;99.90;;;;;;4966820;28;20468;-78
2023/03/23 06:19:12;;;;;;;10.10;9.10;;;11.10;99.90;;;;;;4964276;28;20509;-77
2023/03/23 06:21:39;;;;;;;10.50;9.47;;;11.20;99.90;;;;;;4950052;28;20469;-79
2023/03/23 06:24:08;;;;;;;9.77;8.87;;;11.10;99.90;;;;;;4961038;28;20551;-78
2023/03/23 06:26:38;;;;;;;10.53;8.80;;;11.10;99.90;;;;;;4977553;28;22080;-77
2023/03/23 06:29:10;;;;;;;9.90;9.00;;;11.10;99.90;;;;;;4972690;28;21009;-75
2023/03/23 06:31:39;;;;;;;8.73;7.93;;;11.10;99.90;;;;;;4987749;28;20477;-81
2023/03/23 06:34:06;;;;;;;10.13;9.20;;;11.20;99.90;;;;;;4966245;28;20541;-80
2023/03/23 06:36:33;;;;;;;8.87;8.07;;;11.20;99.90;;;;;;4972331;28;21263;-78
2023/03/23 06:39:00;;;;;;;9.03;8.20;;;11.20;99.90;;;;;;4977475;28;20493;-80
2023/03/23 06:41:29;;;;;;;8.07;7.47;;;11.20;99.90;;;;;;4959878;28;20474;-79
2023/03/23 06:43:56;;;;;;;7.63;6.93;;;11.40;99.90;;;;;;4954715;28;20611;-78
2023/03/23 06:46:23;;;;;;;7.77;7.10;;;11.60;99.90;;;;;;4944633;28;20473;-78
2023/03/23 06:48:51;;;;;;;8.03;7.43;;;11.60;99.90;;;;;;4958583;28;20481;-80
2023/03/23 06:51:18;;;;;;;6.73;6.23;;;11.50;99.90;;;;;;4964034;28;20919;-79
2023/03/23 06:53:45;;;;;;;8.23;7.43;;;11.50;99.90;;;;;;4968248;28;20488;-77
2023/03/23 06:56:13;;;;;;;7.37;6.60;;;11.50;99.90;;;;;;4960084;28;20473;-77
2023/03/23 06:58:41;;;;;;;6.73;6.20;;;11.50;99.90;;;;;;4962306;28;20508;-78
2023/03/23 07:01:09;;;;;;;7.67;6.87;;;11.50;99.90;;;;;;4943075;28;20547;-77
2023/03/23 07:03:36;;;;;;;7.03;6.33;;;11.50;99.90;;;;;;4951007;28;20497;-76
2023/03/23 07:06:04;;;;;;;7.03;6.40;;;11.50;99.90;;;;;;4962025;28;20501;-79
2023/03/23 07:08:31;;;;;;;7.50;6.60;;;11.60;99.90;;;;;;4965613;28;20621;-76
2023/03/23 07:10:58;;;;;;;7.10;6.40;;;11.60;99.90;;;;;;4951035;28;20504;-78
2023/03/23 07:13:25;;;;;;;7.53;6.80;;;11.60;99.90;;;;;;4964696;28;20505;-77
2023/03/23 07:15:54;;;;;;;6.83;6.23;;;11.60;99.90;;;;;;4931914;28;20655;-76
2023/03/23 07:18:21;;;;;;;6.00;5.50;;;11.70;99.90;;;;;;4937876;28;20588;-77
2023/03/23 07:20:49;;;;;;;6.10;5.60;;;11.80;99.90;;;;;;4959035;28;20496;-76
2023/03/23 07:23:16;;;;;;;6.23;5.73;;;11.80;99.90;;;;;;4936709;28;20861;-76
2023/03/23 07:25:44;;;;;;;6.10;5.50;;;11.80;99.90;;;;;;4937985;28;20473;-76
2023/03/23 07:28:12;;;;;;;6.60;6.00;;;11.90;99.90;;;;;;4934882;28;20501;-76
2023/03/23 07:30:39;;;;;;;6.63;6.13;;;11.90;99.90;;;;;;4941750;28;20581;-78
2023/03/23 07:33:08;;;;;;;6.37;5.70;;;11.90;99.90;;;;;;4956620;28;20481;-78
2023/03/23 07:35:36;;;;;;;6.37;5.77;;;11.90;99.90;;;;;;4941261;28;20496;-75
2023/03/23 07:38:04;;;;;;;6.73;5.90;;;11.90;99.90;;;;;;4939927;28;20473;-77
2023/03/23 07:40:33;;;;;;;6.07;5.50;;;12.00;99.90;;;;;;4936375;28;20505;-77
2023/03/23 07:43:00;;;;;;;6.23;5.73;;;12.10;99.90;;;;;;4948983;28;20499;-77
2023/03/23 07:45:27;;;;;;;7.13;4.80;;;12.20;99.90;;;;;;4946620;28;20478;-77
2023/03/23 07:47:55;;;;;;;6.73;5.73;;;12.30;99.90;;;;;;4935042;28;20501;-76
2023/03/23 07:50:24;;;;;;;6.30;5.67;;;12.40;99.90;;;;;;4960513;28;20473;-77
2023/03/23 07:52:52;;;;;;;5.50;5.10;;;12.40;99.90;;;;;;4962332;28;21013;-76
2023/03/23 07:55:20;;;;;;;6.47;5.87;;;12.40;99.90;;;;;;4965744;28;20465;-77
2023/03/23 07:57:48;;;;;;;6.30;5.80;;;12.30;99.90;;;;;;4955860;28;20496;-78
2023/03/23 08:00:18;;;;;;;5.80;5.40;;;12.30;99.90;;;;;;4931863;28;20484;-75
2023/03/23 08:02:45;;;;;;;6.30;5.73;;;12.20;99.90;;;;;;4952801;28;20504;-76
2023/03/23 08:05:13;;;;;;;6.00;5.50;;;12.20;99.90;;;;;;4941496;28;21695;-76
2023/03/23 08:07:42;;;;;;;6.03;5.53;;;12.10;99.90;;;;;;4941176;28;20507;-77
2023/03/23 08:10:11;;;;;;;6.60;5.90;;;12.10;99.90;;;;;;4964059;28;21756;-80
2023/03/23 08:12:38;;;;;;;6.83;6.27;;;12.00;99.90;;;;;;4926438;28;20517;-77
2023/03/23 08:15:07;;;;;;;6.70;6.20;;;12.00;99.90;;;;;;4935157;28;20914;-77
2023/03/23 08:17:35;;;;;;;6.90;6.30;;;12.00;99.90;;;;;;4963157;28;20472;-77
2023/03/23 08:20:12;;;;;;;7.00;6.30;;;12.00;99.90;;;;;;4944175;28;20636;-77
2023/03/23 08:22:39;;;;;;;7.60;6.20;;;11.90;99.90;;;;;;4937391;28;20530;-76
2023/03/23 08:25:11;;;;;;;6.20;5.60;;;11.90;99.90;;;;;;4933286;28;20477;-77
2023/03/23 08:27:42;;;;;;;4.53;3.57;;;11.80;99.90;;;;;;4954557;28;20493;-75
2023/03/23 08:30:11;;;;;;;3.43;2.70;;;11.70;99.90;;;;;;4939788;28;20504;-76
2023/03/23 08:32:39;;;;;;;2.83;2.60;;;11.60;99.90;;;;;;4944396;28;20539;-74
2023/03/23 08:35:08;;;;;;;6.60;3.50;;;11.40;99.90;;;;;;4971411;28;20999;-74
2023/03/23 08:37:35;;;;;;;3.20;3.00;;;11.40;99.90;;;;;;4967012;28;21013;-74
2023/03/23 08:40:07;;;;;;;3.80;3.00;;;11.30;99.90;;;;;;4957407;28;20501;-75
2023/03/23 08:42:35;;;;;;;3.27;3.07;;;11.30;99.90;;;;;;4963921;28;21080;-75
2023/03/23 08:45:02;;;;;;;3.33;3.03;;;11.30;99.90;;;;;;4949666;28;21114;-73
2023/03/23 08:47:29;;;;;;;3.10;2.90;;;11.30;99.90;;;;;;4952001;28;20481;-75
2023/03/23 08:49:56;;;;;;;2.63;2.43;;;11.30;99.90;;;;;;4954541;28;20489;-73
2023/03/23 08:52:24;;;;;;;3.43;2.90;;;11.40;99.90;;;;;;4969969;28;21024;-73
2023/03/23 08:54:51;;;;;;;2.87;2.63;;;11.40;99.90;;;;;;4951998;28;20538;-76
2023/03/23 08:57:19;;;;;;;4.50;2.40;;;11.50;99.90;;;;;;4946509;28;20477;-76
2023/03/23 08:59:47;;;;;;;2.80;2.60;;;11.60;99.90;;;;;;4975270;28;20565;-76
2023/03/23 09:02:14;;;;;;;3.90;3.00;;;11.70;99.90;;;;;;4938130;28;21180;-76
2023/03/23 09:04:42;;;;;;;2.70;2.50;;;11.80;99.90;;;;;;4943012;28;20552;-73
2023/03/23 09:07:10;;;;;;;4.83;2.93;;;11.80;99.90;;;;;;4938994;28;20559;-73
2023/03/23 09:09:39;;;;;;;3.90;3.40;;;11.80;99.90;;;;;;4948397;28;20485;-73
2023/03/23 09:12:06;;;;;;;5.03;3.43;;;11.90;99.90;;;;;;4955769;28;20631;-74
2023/03/23 09:14:33;;;;;;;5.47;3.63;;;12.00;99.90;;;;;;4939662;28;20480;-74
2023/03/23 09:17:02;;;;;;;4.47;3.40;;;12.10;99.90;;;;;;4965019;28;20469;-74
2023/03/23 09:19:29;;;;;;;4.13;3.30;;;12.10;99.90;;;;;;4963978;28;20503;-76
2023/03/23 09:21:56;;;;;;;3.70;3.20;;;12.10;99.90;;;;;;4963089;28;20498;-77
2023/03/23 09:24:23;;;;;;;5.43;2.90;;;12.10;99.90;;;;;;4952000;28;20477;-76
2023/03/23 09:26:50;;;;;;;6.13;3.37;;;12.10;99.90;;;;;;4965035;28;21049;-77
2023/03/23 09:29:18;;;;;;;3.73;2.73;;;12.10;99.90;;;;;;4973179;28;20503;-74
2023/03/23 09:31:46;;;;;;;5.50;2.70;;;12.00;99.90;;;;;;4953047;28;20568;-76
2023/03/23 09:34:16;;;;;;;5.80;3.03;;;12.00;99.90;;;;;;4962119;28;20480;-77
2023/03/23 09:36:44;;;;;;;3.70;2.20;;;12.00;99.90;;;;;;4939045;28;20492;-77
2023/03/23 09:39:11;;;;;;;4.00;2.60;;;12.00;99.90;;;;;;4941587;28;20987;-75
2023/03/23 09:42:00;;;;;;;7.30;2.43;;;12.00;99.90;;;;;;4936632;28;21488;-76
2023/03/23 09:44:36;;;;;;;4.43;2.30;;;12.10;99.90;;;;;;4944567;28;20485;-76
2023/03/23 09:47:09;;;;;;;5.20;2.70;;;12.10;99.90;;;;;;4942520;28;20481;-76
2023/03/23 09:49:43;;;;;;;7.00;2.73;;;12.20;99.90;;;;;;4950623;28;20507;-75
2023/03/23 09:52:14;;;;;;;5.00;3.23;;;12.20;99.90;;;;;;4940305;28;20583;-75
2023/03/23 09:54:44;;;;;;;4.40;2.23;;;12.30;99.90;;;;;;4934144;28;20489;-75
2023/03/23 09:57:17;;;;;;;5.17;2.77;;;12.40;99.90;;;;;;4942700;28;20731;-76
2023/03/23 09:59:52;;;;;;;7.17;2.73;;;12.50;99.90;;;;;;4951089;28;20599;-75
2023/03/23 10:02:24;;;;;;;4.73;2.40;;;12.60;99.90;;;;;;4962791;28;20491;-75
2023/03/23 10:04:55;;;;;;;5.83;3.03;;;12.70;99.90;;;;;;4931000;28;20488;-75
2023/03/23 10:07:25;;;;;;;6.23;2.37;;;12.70;99.90;;;;;;4958484;28;20551;-77
2023/03/23 10:09:54;;;;;;;4.27;1.90;;;12.70;99.90;;;;;;4945177;28;20501;-76
2023/03/23 10:12:28;;;;;;;7.40;3.07;;;12.70;99.90;;;;;;4952322;28;20508;-77
2023/03/23 10:15:16;;;;;;;4.80;2.10;;;12.70;99.90;;;;;;4935304;28;20469;-77
2023/03/23 10:17:49;;;;;;;5.90;2.27;;;12.70;99.90;;;;;;4948828;28;20484;-75
2023/03/23 10:20:43;;;;;;;5.03;2.43;;;12.80;99.90;;;;;;4958013;28;20489;-75
2023/03/23 10:23:38;;;;;;;8.77;3.50;;;12.80;99.90;;;;;;4952589;28;20489;-77
2023/03/23 10:26:12;;;;;;;5.60;2.57;;;12.90;99.90;;;;;;4941449;28;21018;-75
2023/03/23 10:28:42;;;;;;;6.87;2.67;;;13.00;99.90;;;;;;4931629;28;21270;-76
2023/03/23 10:31:12;;;;;;;4.00;2.17;;;13.10;99.90;;;;;;4930088;28;20537;-77
2023/03/23 10:33:42;;;;;;;4.10;2.00;;;13.10;99.90;;;;;;4934616;28;20500;-76
2023/03/23 10:36:15;;;;;;;4.17;2.50;;;13.10;99.90;;;;;;4946233;28;20461;-76
2023/03/23 10:38:46;;;;;;;4.87;2.53;;;13.10;99.90;;;;;;4944048;28;20516;-74
2023/03/23 10:41:15;;;;;;;5.07;2.30;;;13.10;99.90;;;;;;4943407;28;21476;-76
2023/03/23 10:43:43;;;;;;;4.57;2.40;;;13.10;99.90;;;;;;4950056;28;20555;-77
2023/03/23 10:46:23;;;;;;;9.97;3.37;;;13.10;99.90;;;;;;4955778;28;20473;-73
2023/03/23 10:48:51;;;;;;;6.70;3.10;;;13.10;99.90;;;;;;4935415;28;20507;-73
2023/03/23 10:51:24;;;;;;;7.07;2.83;;;13.00;99.90;;;;;;4951904;28;21002;-73
2023/03/23 10:53:57;;;;;;;6.37;2.80;;;12.90;99.90;;;;;;4965317;28;20485;-73
2023/03/23 10:56:27;;;;;;;5.27;2.67;;;12.80;99.90;;;;;;4943165;28;20572;-72
2023/03/23 10:58:54;;;;;;;5.87;2.37;;;12.80;99.90;;;;;;4947395;28;21191;-75
2023/03/23 11:01:31;;;;;;;5.80;2.60;;;12.80;99.90;;;;;;4943964;28;20481;-74
2023/03/23 11:04:00;;;;;;;6.43;2.37;;;12.80;99.90;;;;;;4967783;28;20495;-74
2023/03/23 11:06:32;;;;;;;4.70;2.60;;;12.80;99.90;;;;;;4946580;28;20477;-75
2023/03/23 11:09:03;;;;;;;5.30;2.60;;;12.90;99.90;;;;;;4956265;28;20607;-74
2023/03/23 11:11:32;;;;;;;9.13;2.87;;;13.00;99.90;;;;;;4953173;28;22885;-73
2023/03/23 11:14:01;;;;;;;6.77;2.50;;;13.10;99.90;;;;;;4945294;28;20481;-74
2023/03/23 11:16:30;;;;;;;6.67;2.30;;;13.20;99.90;;;;;;4944950;28;20469;-74
2023/03/23 11:18:58;;;;;;;11.83;3.40;;;13.30;99.90;;;;;;4945558;28;21980;-74
2023/03/23 11:21:28;;;;;;;6.53;3.17;;;13.40;99.90;;;;;;4964428;28;20473;-73
2023/03/23 11:23:58;;;;;;;5.60;2.30;;;13.50;99.90;;;;;;4949554;28;20497;-76
2023/03/23 11:26:28;;;;;;;4.77;2.23;;;13.60;99.90;;;;;;4952124;28;20477;-72
2023/03/23 11:28:58;;;;;;;6.93;2.30;;;13.60;99.90;;;;;;4949525;28;20496;-73
2023/03/23 11:31:30;;;;;;;8.67;3.40;;;13.60;99.90;;;;;;4947112;28;20477;-73
2023/03/23 11:34:02;;;;;;;6.77;2.90;;;13.60;99.90;;;;;;4943576;28;21349;-75
2023/03/23 11:36:37;;;;;;;8.20;3.33;;;13.60;99.90;;;;;;4945216;28;20462;-74
2023/03/23 11:39:06;;;;;;;8.53;3.30;;;13.60;99.90;;;;;;4962831;28;20483;-73
2023/03/23 11:41:35;;;;;;;9.17;3.00;;;13.60;99.90;;;;;;4939261;28;20479;-75
2023/03/23 11:44:12;;;;;;;9.67;2.47;;;13.70;99.90;;;;;;4950037;28;20489;-74
2023/03/23 11:46:47;;;;;;;6.10;2.50;;;13.70;99.90;;;;;;4951352;28;20534;-73
2023/03/23 11:49:25;;;;;;;7.70;2.53;;;13.60;99.90;;;;;;4956068;28;20500;-74
2023/03/23 11:52:00;;;;;;;5.93;2.10;;;13.60;99.90;;;;;;4960497;28;20481;-73
2023/03/23 11:54:32;;;;;;;7.10;2.87;;;13.60;99.90;;;;;;4952437;28;20497;-72
2023/03/23 11:56:59;;;;;;;10.50;3.10;;;13.60;99.90;;;;;;4974668;28;20469;-75
2023/03/23 11:59:32;;;;;;;3.23;2.60;;;13.50;99.90;;;;;;4964123;28;20570;-75
2023/03/23 12:02:14;;;;;;;7.50;3.00;;;13.50;99.90;;;;;;4955820;28;20509;-74
2023/03/23 12:04:58;;;;;;;7.20;2.80;;;13.50;99.90;;;;;;4954543;28;20476;-73
2023/03/23 12:07:48;;;;;;;7.07;3.50;;;13.40;99.90;;;;;;4946191;28;20480;-74
2023/03/23 12:10:28;;;;;;;11.60;4.57;;;13.30;99.90;;;;;;4946576;28;20496;-74
2023/03/23 12:13:06;;;;;;;7.07;4.07;;;13.30;99.90;;;;;;4942344;28;20849;-74
2023/03/23 12:15:39;;;;;;;5.13;3.47;;;13.30;99.90;;;;;;4944826;28;20857;-74
2023/03/23 12:18:16;;;;;;;5.23;3.77;;;13.30;99.90;;;;;;4949275;28;20485;-74
2023/03/23 12:20:58;;;;;;;3.37;3.07;;;13.30;99.90;;;;;;4954631;28;20477;-73
2023/03/23 12:23:32;;;;;;;5.53;3.50;;;13.30;99.90;;;;;;4970280;28;20555;-75
2023/03/23 12:26:16;;;;;;;7.10;4.00;;;13.30;99.90;;;;;;4957635;28;20523;-73
2023/03/23 12:29:11;;;;;;;7.13;4.10;;;13.40;99.90;;;;;;4947442;28;20570;-74
2023/03/23 12:31:48;;;;;;;5.07;3.70;;;13.30;99.90;;;;;;4956278;28;20865;-74
2023/03/23 12:34:24;;;;;;;7.67;4.67;;;13.30;99.90;;;;;;4944926;28;20473;-74
2023/03/23 12:37:05;;;;;;;9.10;4.50;;;13.30;99.90;;;;;;4938653;28;20483;-74
2023/03/23 12:40:08;;;;;;;6.90;4.73;;;13.30;99.90;;;;;;4948687;28;20594;-72
2023/03/23 12:42:44;;;;;;;6.50;4.50;;;13.30;99.90;;;;;;4968743;28;21525;-74
2023/03/23 12:45:22;;;;;;;6.77;4.77;;;13.20;99.90;;;;;;4944153;28;20464;-74
2023/03/23 12:47:57;;;;;;;8.90;5.30;;;13.20;99.90;;;;;;4958965;28;20481;-75
2023/03/23 12:50:29;;;;;;;5.40;4.13;;;13.10;99.90;;;;;;4953789;28;20495;-73
2023/03/23 12:53:00;;;;;;;26.87;19.13;;;13.10;99.90;;;;;;4961006;28;20488;-74
2023/03/23 12:55:33;;;;;;;12.43;8.20;;;13.10;99.90;;;;;;4983485;28;20473;-74